createdAt,value
2019-04-01T00:04:09.264Z,7.60
2019-04-01T00:09:12.342Z,7.51
2019-04-01T00:14:15.351Z,7.45
2019-04-01T00:19:18.477Z,7.34
2019-04-01T00:24:21.476Z,7.20
2019-04-01T00:29:24.543Z,7.17
2019-04-01T00:34:27.516Z,7.09
2019-04-01T00:39:30.873Z,7.04
2019-04-01T00:44:33.871Z,6.82
2019-04-01T00:49:36.885Z,6.65
2019-04-01T00:54:39.856Z,6.58
2019-04-01T00:59:42.941Z,6.53
2019-04-01T01:04:45.963Z,6.57
2019-04-01T01:09:48.983Z,6.39
2019-04-01T01:14:52.052Z,6.18
2019-04-01T01:19:55.401Z,6.03
2019-04-01T01:24:58.388Z,5.97
2019-04-01T01:30:01.591Z,5.80
2019-04-01T01:35:05.078Z,5.70
2019-04-01T01:40:08.199Z,5.61
2019-04-01T01:45:11.174Z,5.49
2019-04-01T01:50:14.393Z,5.42
2019-04-01T01:55:17.357Z,5.39
2019-04-01T02:00:21.059Z,5.23
2019-04-01T02:05:24.059Z,5.26
2019-04-01T02:10:27.164Z,5.30
2019-04-01T02:15:30.119Z,5.06
2019-04-01T02:20:33.533Z,5.12
2019-04-01T02:25:36.664Z,4.96
2019-04-01T02:30:39.965Z,4.89
2019-04-01T02:35:43.180Z,4.84
2019-04-01T02:40:46.411Z,5.01
2019-04-01T02:45:49.496Z,5.07
2019-04-01T02:50:52.444Z,5.19
2019-04-01T02:55:55.414Z,5.14
2019-04-01T03:00:58.412Z,4.94
2019-04-01T03:06:01.484Z,5.07
2019-04-01T03:11:04.675Z,5.04
2019-04-01T03:16:07.606Z,4.81
2019-04-01T03:21:10.696Z,4.88
2019-04-01T03:26:14.026Z,5.11
2019-04-01T03:31:17.047Z,4.70
2019-04-01T03:36:19.982Z,4.65
2019-04-01T03:41:23.127Z,4.73
2019-04-01T03:46:26.119Z,4.70
2019-04-01T03:51:29.182Z,4.68
2019-04-01T03:56:32.123Z,4.91
2019-04-01T04:01:35.455Z,5.09
2019-04-01T04:06:38.441Z,4.87
2019-04-01T04:11:41.446Z,4.75
2019-04-01T04:16:44.571Z,4.71
2019-04-01T04:21:47.554Z,4.73
2019-04-01T04:26:50.636Z,4.66
2019-04-01T04:31:53.818Z,4.68
2019-04-01T04:36:56.991Z,4.88
2019-04-01T04:42:00.218Z,4.92
2019-04-01T04:47:03.622Z,4.78
2019-04-01T04:52:06.693Z,4.77
2019-04-01T04:57:09.658Z,4.78
2019-04-01T05:02:13.282Z,4.73
2019-04-01T05:07:16.838Z,4.32
2019-04-01T05:12:19.907Z,4.27
2019-04-01T05:17:22.948Z,4.43
2019-04-01T05:22:26.350Z,4.52
2019-04-01T05:27:33.432Z,4.48
2019-04-01T05:32:37.231Z,4.54
2019-04-01T05:37:40.440Z,4.77
2019-04-01T05:42:43.391Z,4.80
2019-04-01T05:47:49.097Z,5.04
2019-04-01T05:52:52.067Z,5.38
2019-04-01T05:57:55.927Z,5.05
2019-04-01T06:02:58.919Z,5.43
2019-04-01T06:08:02.325Z,5.15
2019-04-01T06:13:05.675Z,5.42
2019-04-01T06:18:08.839Z,5.48
2019-04-01T06:23:11.853Z,5.46
2019-04-01T06:28:15.206Z,5.37
2019-04-01T06:33:18.344Z,6.19
2019-04-01T06:38:21.929Z,6.16
2019-04-01T06:43:25.254Z,6.18
2019-04-01T06:48:28.353Z,5.70
2019-04-01T06:53:31.736Z,6.00
2019-04-01T06:58:35.461Z,6.12
2019-04-01T07:03:38.412Z,6.68
2019-04-01T07:08:41.447Z,5.93
2019-04-01T07:13:44.557Z,6.42
2019-04-01T07:18:47.839Z,6.55
2019-04-01T07:23:50.902Z,6.48
2019-04-01T07:28:54.602Z,6.72
2019-04-01T07:33:57.649Z,7.03
2019-04-01T07:39:00.676Z,6.49
2019-04-01T07:44:03.890Z,6.94
2019-04-01T07:49:06.963Z,7.14
2019-04-01T07:54:10.432Z,7.41
2019-04-01T07:59:13.608Z,7.57
2019-04-01T08:04:16.738Z,7.64
2019-04-01T08:09:19.962Z,7.69
2019-04-01T08:14:22.970Z,7.52
2019-04-01T08:19:25.927Z,7.91
2019-04-01T08:24:28.946Z,8.09
2019-04-01T08:29:32.024Z,8.09
2019-04-01T08:34:35.169Z,8.34
2019-04-01T08:39:38.121Z,8.10
2019-04-01T08:44:41.408Z,8.27
2019-04-01T08:49:44.574Z,8.53
2019-04-01T08:54:47.705Z,8.38
2019-04-01T08:59:50.984Z,8.34
2019-04-01T09:04:54.092Z,8.74
2019-04-01T09:09:57.711Z,8.66
2019-04-01T09:15:01.810Z,8.69
2019-04-01T09:20:05.311Z,8.31
2019-04-01T09:25:08.613Z,8.73
2019-04-01T09:30:12.120Z,8.65
2019-04-01T09:35:15.297Z,8.22
2019-04-01T09:40:18.432Z,8.27
2019-04-01T09:45:21.569Z,8.54
2019-04-01T09:50:24.567Z,8.65
2019-04-01T09:55:27.572Z,8.77
2019-04-01T10:00:30.564Z,8.67
2019-04-01T10:05:33.630Z,8.75
2019-04-01T10:10:36.695Z,8.87
2019-04-01T10:15:39.653Z,8.94
2019-04-01T10:20:42.769Z,8.63
2019-04-01T10:25:45.816Z,9.10
2019-04-01T10:30:48.802Z,9.16
2019-04-01T10:35:51.926Z,9.26
2019-04-01T10:40:54.888Z,8.74
2019-04-01T10:45:57.924Z,9.19
2019-04-01T10:51:01.069Z,9.08
2019-04-01T10:56:04.416Z,8.99
2019-04-01T11:01:07.425Z,9.01
2019-04-01T11:06:10.687Z,9.28
2019-04-01T11:11:14.110Z,9.50
2019-04-01T11:16:17.212Z,9.66
2019-04-01T11:21:20.258Z,9.63
2019-04-01T11:26:23.316Z,9.50
2019-04-01T11:31:26.599Z,9.32
2019-04-01T11:36:29.787Z,9.62
2019-04-01T11:41:32.831Z,9.84
2019-04-01T11:46:35.840Z,9.65
2019-04-01T11:51:40.196Z,9.55
2019-04-01T11:56:43.721Z,9.84
2019-04-01T12:01:47.541Z,10.00
2019-04-01T12:06:51.418Z,10.01
2019-04-01T12:11:54.615Z,10.02
2019-04-01T12:16:57.593Z,9.98
2019-04-01T12:22:00.674Z,10.24
2019-04-01T12:27:03.722Z,10.10
2019-04-01T12:32:06.856Z,10.38
2019-04-01T12:37:09.929Z,10.38
2019-04-01T12:42:13.157Z,10.29
2019-04-01T12:47:16.685Z,10.19
2019-04-01T12:52:19.820Z,10.36
2019-04-01T12:57:22.954Z,10.70
2019-04-01T13:02:26.026Z,10.25
2019-04-01T13:07:29.045Z,10.26
2019-04-01T13:12:32.453Z,10.44
2019-04-01T13:17:35.575Z,10.46
2019-04-01T13:22:38.732Z,10.71
2019-04-01T13:27:41.753Z,10.63
2019-04-01T13:32:44.761Z,10.56
2019-04-01T13:37:47.755Z,10.61
2019-04-01T13:42:50.823Z,10.53
2019-04-01T13:47:53.860Z,10.42
2019-04-01T13:52:57.121Z,10.64
2019-04-01T13:58:00.491Z,10.55
2019-04-01T14:03:03.543Z,10.61
2019-04-01T14:08:06.582Z,10.62
2019-04-01T14:13:09.564Z,10.39
2019-04-01T14:18:12.685Z,10.49
2019-04-01T14:23:15.656Z,10.35
2019-04-01T14:28:18.619Z,10.46
2019-04-01T14:33:21.659Z,10.41
2019-04-01T14:38:25.386Z,10.39
2019-04-01T14:43:31.098Z,10.43
2019-04-01T14:48:33.280Z,10.40
2019-04-01T14:53:37.812Z,10.46
2019-04-01T14:58:41.147Z,10.17
2019-04-01T15:03:44.153Z,10.35
2019-04-01T15:08:48.190Z,10.61
2019-04-01T15:13:51.739Z,10.50
2019-04-01T15:18:54.700Z,10.45
2019-04-01T15:23:58.170Z,10.34
2019-04-01T15:29:01.307Z,10.38
2019-04-01T15:34:04.650Z,10.36
2019-04-01T15:39:11.541Z,10.18
2019-04-01T15:44:14.555Z,10.23
2019-04-01T15:49:17.718Z,10.14
2019-04-01T15:54:20.779Z,10.17
2019-04-01T15:59:23.873Z,10.17
2019-04-01T16:04:26.861Z,9.92
2019-04-01T16:09:29.999Z,9.85
2019-04-01T16:14:32.986Z,9.80
2019-04-01T16:19:36.150Z,9.68
2019-04-01T16:24:39.602Z,9.38
2019-04-01T16:29:45.708Z,9.33
2019-04-01T16:34:48.691Z,9.27
2019-04-01T16:39:54.433Z,9.14
2019-04-01T16:44:56.866Z,9.07
2019-04-01T16:49:59.891Z,8.95
2019-04-01T16:55:06.786Z,8.86
2019-04-01T17:00:14.469Z,8.73
2019-04-01T17:05:24.152Z,8.64
2019-04-01T17:10:28.051Z,8.47
2019-04-01T17:15:31.039Z,8.36
2019-04-01T17:20:34.161Z,8.20
2019-04-01T17:25:37.542Z,8.10
2019-04-01T17:30:40.815Z,7.95
2019-04-01T17:35:43.991Z,7.84
2019-04-01T17:40:47.181Z,7.74
2019-04-01T17:45:50.275Z,7.62
2019-04-01T17:50:53.717Z,7.49
2019-04-01T17:55:56.847Z,7.37
2019-04-01T18:01:00.202Z,7.25
2019-04-01T18:06:03.642Z,7.13
2019-04-01T18:11:06.641Z,7.06
2019-04-01T18:16:09.939Z,6.92
2019-04-01T18:21:13.057Z,6.84
2019-04-01T18:26:17.129Z,6.72
2019-04-01T18:31:21.214Z,6.68
2019-04-01T18:36:24.195Z,6.59
2019-04-01T18:41:27.313Z,6.48
2019-04-01T18:46:30.632Z,6.43
2019-04-01T18:51:36.444Z,6.38
2019-04-01T18:56:38.679Z,6.28
2019-04-01T19:01:42.246Z,6.20
2019-04-01T19:06:45.343Z,6.18
2019-04-01T19:11:48.349Z,6.11
2019-04-01T19:16:51.426Z,6.03
2019-04-01T19:21:54.612Z,5.99
2019-04-01T19:26:57.820Z,5.89
2019-04-01T19:32:00.886Z,5.90
2019-04-01T19:37:03.958Z,5.84
2019-04-01T19:42:07.031Z,5.77
2019-04-01T19:47:10.072Z,5.71
2019-04-01T19:52:13.158Z,5.63
2019-04-01T19:57:16.612Z,5.55
2019-04-01T20:02:19.709Z,5.49
2019-04-01T20:07:22.780Z,5.40
2019-04-01T20:12:25.804Z,5.31
2019-04-01T20:17:29.029Z,5.26
2019-04-01T20:22:32.241Z,5.18
2019-04-01T20:27:35.598Z,5.14
2019-04-01T20:32:38.972Z,5.07
2019-04-01T20:37:42.725Z,5.02
2019-04-01T20:42:46.581Z,4.93
2019-04-01T20:47:50.503Z,4.86
2019-04-01T20:52:53.898Z,4.82
2019-04-01T20:57:57.293Z,4.80
2019-04-01T21:03:01.308Z,4.74
2019-04-01T21:08:05.066Z,4.69
2019-04-01T21:13:08.169Z,4.66
2019-04-01T21:18:11.486Z,4.62
2019-04-01T21:23:14.613Z,4.58
2019-04-01T21:28:17.775Z,4.52
2019-04-01T21:33:20.807Z,4.48
2019-04-01T21:38:24.111Z,4.42
2019-04-01T21:43:27.211Z,4.42
2019-04-01T21:48:30.215Z,4.35
2019-04-01T21:53:33.201Z,4.32
2019-04-01T21:58:36.479Z,4.31
2019-04-01T22:03:39.809Z,4.21
2019-04-01T22:08:43.118Z,4.13
2019-04-01T22:13:46.442Z,4.11
2019-04-01T22:18:49.556Z,4.05
2019-04-01T22:23:52.675Z,3.99
2019-04-01T22:28:55.826Z,3.95
2019-04-01T22:33:58.831Z,3.90
2019-04-01T22:39:04.277Z,3.80
2019-04-01T22:44:07.619Z,3.69
2019-04-01T22:49:12.041Z,3.69
2019-04-01T22:54:16.175Z,3.64
2019-04-01T22:59:20.199Z,3.60
2019-04-01T23:04:23.417Z,3.51
2019-04-01T23:09:26.624Z,3.39
2019-04-01T23:14:29.742Z,3.32
2019-04-01T23:19:34.503Z,3.27
2019-04-01T23:24:38.172Z,3.21
2019-04-01T23:29:41.207Z,3.11
2019-04-01T23:34:44.316Z,2.98
2019-04-01T23:39:47.590Z,2.89
2019-04-01T23:44:51.276Z,2.79
2019-04-01T23:49:55.313Z,2.63
2019-04-01T23:54:59.217Z,2.71
